Time;durP1;ratioP1;P1;durP2;ratioP2;P2;SDS_P1;SDS_P2;PMS_P1;PMS_P2;Temp;Humidity;BMP_temperature;BMP_pressure;BME280_temperature;BME280_humidity;BME280_pressure;Samples;Min_cycle;Max_cycle;Signal;HPM_P1;HPM_P2
2022/02/12 00:00:51;;;;;;;1.98;1.23;;;;;;;-0.78;100.00;103092.75;6350834;28;20058;-81
2022/02/12 00:03:53;;;;;;;11.68;2.13;;;;;;;-0.76;100.00;103111.78;6338438;28;20048;-81
2022/02/12 00:06:55;;;;;;;2.63;1.33;;;;;;;-0.81;100.00;103108.16;6324957;28;20419;-82
2022/02/12 00:10:07;;;;;;;2.97;1.30;;;;;;;-0.82;100.00;103106.41;6329388;28;20043;-82
2022/02/12 00:13:11;;;;;;;4.05;1.70;;;;;;;-0.87;100.00;103114.00;6341908;27;20039;-82
2022/02/12 00:16:12;;;;;;;1.00;0.80;;;;;;;-0.86;100.00;103108.03;6324771;28;20048;-82
2022/02/12 00:19:15;;;;;;;1.77;0.80;;;;;;;-0.87;100.00;103111.41;6325291;28;20051;-81
2022/02/12 00:22:16;;;;;;;1.02;0.85;;;;;;;-0.87;100.00;103110.53;6324834;28;20040;-82
2022/02/12 00:25:18;;;;;;;1.10;1.00;;;;;;;-0.88;100.00;103106.22;6325047;28;20055;-81
2022/02/12 00:28:21;;;;;;;2.33;0.90;;;;;;;-0.87;100.00;103100.22;6324987;28;20055;-82
2022/02/12 00:31:22;;;;;;;1.80;0.80;;;;;;;-0.90;100.00;103098.44;6324741;28;20218;-84
2022/02/12 00:34:25;;;;;;;2.60;1.08;;;;;;;-0.93;100.00;103093.16;6324527;28;20048;-82
2022/02/12 00:37:28;;;;;;;1.75;0.73;;;;;;;-0.93;100.00;103095.75;6324491;28;20058;-81
2022/02/12 00:40:29;;;;;;;1.85;0.57;;;;;;;-0.95;100.00;103092.25;6324739;28;20075;-82
2022/02/12 00:43:31;;;;;;;2.72;1.08;;;;;;;-0.97;100.00;103091.31;6324596;28;20051;-82
2022/02/12 00:46:33;;;;;;;0.80;0.65;;;;;;;-0.99;100.00;103087.81;6324602;28;20643;-82
2022/02/12 00:49:36;;;;;;;2.58;0.82;;;;;;;-1.02;100.00;103077.38;6324086;28;20122;-81
2022/02/12 00:52:37;;;;;;;2.95;1.38;;;;;;;-1.05;100.00;103078.16;6324091;28;20066;-82
2022/02/12 00:55:38;;;;;;;1.58;1.02;;;;;;;-1.05;100.00;103075.56;6323416;28;20048;-81
2022/02/12 00:58:40;;;;;;;1.23;0.60;;;;;;;-1.04;100.00;103081.63;6323795;28;20051;-82
2022/02/12 01:01:42;;;;;;;2.63;1.30;;;;;;;-1.06;100.00;103072.94;6323764;28;20051;-83
2022/02/12 01:04:44;;;;;;;7.35;1.85;;;;;;;-1.10;100.00;103071.97;6323971;28;20051;-81
2022/02/12 01:07:46;;;;;;;1.63;0.80;;;;;;;-1.11;100.00;103072.81;6323734;28;20070;-83
2022/02/12 01:10:47;;;;;;;2.28;1.30;;;;;;;-1.17;100.00;103077.78;6324021;28;20048;-82
2022/02/12 01:13:48;;;;;;;1.83;1.00;;;;;;;-1.17;100.00;103064.00;6323955;28;20044;-81
2022/02/12 01:16:50;;;;;;;2.70;1.35;;;;;;;-1.17;100.00;103064.88;6323535;28;20511;-82
2022/02/12 01:19:52;;;;;;;2.10;1.20;;;;;;;-1.18;100.00;103073.44;6323223;28;20047;-81
2022/02/12 01:22:54;;;;;;;0.95;0.77;;;;;;;-1.20;100.00;103072.50;6323226;28;20048;-81
2022/02/12 01:25:55;;;;;;;1.45;0.95;;;;;;;-1.21;100.00;103069.88;6323834;28;20063;-81
2022/02/12 01:28:57;;;;;;;1.15;0.52;;;;;;;-1.21;100.00;103069.88;6323565;28;20051;-82
2022/02/12 01:32:03;;;;;;;3.75;1.23;;;;;;;-1.22;100.00;103068.16;6322827;28;20055;-81
2022/02/12 01:35:08;;;;;;;1.65;0.70;;;;;;;-1.26;100.00;103067.16;6323534;28;20139;-82
2022/02/12 01:38:10;;;;;;;1.60;1.05;;;;;;;-1.26;100.00;103074.03;6323441;28;20491;-81
2022/02/12 01:41:11;;;;;;;0.65;0.63;;;;;;;-1.25;100.00;103071.47;6323078;28;20052;-82
2022/02/12 01:44:13;;;;;;;1.40;1.05;;;;;;;-1.26;100.00;103063.69;6331681;28;20048;-83
2022/02/12 01:47:15;;;;;;;1.80;0.82;;;;;;;-1.28;100.00;103067.09;6323046;28;20055;-81
2022/02/12 01:50:18;;;;;;;7.45;1.45;;;;;;;-1.30;100.00;103065.31;6322772;28;20044;-81
2022/02/12 01:53:21;;;;;;;1.75;1.17;;;;;;;-1.31;100.00;103068.72;6322892;28;20075;-82
2022/02/12 01:56:23;;;;;;;1.35;1.25;;;;;;;-1.33;100.00;103071.22;6322513;28;20502;-82
2022/02/12 01:59:25;;;;;;;7.57;1.55;;;;;;;-1.34;100.00;103069.47;6322991;28;20059;-81
2022/02/12 02:02:26;;;;;;;2.13;0.80;;;;;;;-1.40;100.00;103056.38;6322551;28;20044;-82
2022/02/12 02:05:29;;;;;;;2.17;0.95;;;;;;;-1.48;100.00;103064.69;6322722;28;20055;-82
2022/02/12 02:08:30;;;;;;;1.30;1.17;;;;;;;-1.46;100.00;103058.75;6322454;28;20055;-83
2022/02/12 02:11:32;;;;;;;0.95;0.70;;;;;;;-1.39;100.00;103060.72;6322417;28;20052;-82
2022/02/12 02:14:35;;;;;;;1.67;0.73;;;;;;;-1.38;100.00;103059.00;6322703;28;20043;-81
2022/02/12 02:17:37;;;;;;;2.08;0.90;;;;;;;-1.38;100.00;103056.44;6322286;28;20048;-82
2022/02/12 02:20:41;;;;;;;2.63;1.15;;;;;;;-1.43;100.00;103053.69;6322450;28;20048;-82
2022/02/12 02:24:17;;;;;;;1.13;0.80;;;;;;;-1.43;100.00;103053.69;6322446;28;20138;-83
2022/02/12 02:27:21;;;;;;;2.40;0.82;;;;;;;-1.43;100.00;103052.81;6322255;28;20391;-82
2022/02/12 02:30:26;;;;;;;0.80;0.80;;;;;;;-1.41;100.00;103048.56;6322315;28;20162;-82
2022/02/12 02:33:28;;;;;;;1.00;0.90;;;;;;;-1.42;100.00;103059.72;6322126;28;20567;-81
2022/02/12 02:36:29;;;;;;;2.45;1.25;;;;;;;-1.44;100.00;103048.50;6322387;28;20082;-81
2022/02/12 02:39:32;;;;;;;2.75;1.40;;;;;;;-1.45;100.00;103047.63;6322045;28;20415;-82
2022/02/12 02:42:33;;;;;;;3.30;0.95;;;;;;;-1.47;100.00;103050.97;6322147;28;20047;-82
2022/02/12 02:45:35;;;;;;;5.18;1.40;;;;;;;-1.51;100.00;103049.97;6322215;28;20075;-82
2022/02/12 02:48:36;;;;;;;5.97;1.17;;;;;;;-1.49;100.00;103050.94;6322286;28;20051;-81
2022/02/12 02:58:17;;;;;;;1.77;1.05;;;;;;;-1.60;100.00;103039.34;6321826;28;19924;-82
2022/02/12 03:01:20;;;;;;;1.38;0.73;;;;;;;-1.65;100.00;103038.34;6321548;28;20060;-82
2022/02/12 03:04:22;;;;;;;1.27;1.17;;;;;;;-1.68;100.00;103033.97;6321542;28;20044;-82
2022/02/12 03:07:23;;;;;;;2.75;0.77;;;;;;;-1.66;100.00;103031.44;6322055;28;20048;-83
2022/02/12 03:10:26;;;;;;;1.15;1.05;;;;;;;-1.65;100.00;103031.47;6321763;28;20514;-82
2022/02/12 03:13:28;;;;;;;1.60;0.93;;;;;;;-1.68;100.00;103026.25;6321859;28;20056;-83
2022/02/12 03:16:29;;;;;;;5.45;1.20;;;;;;;-1.71;100.00;103027.81;6321520;28;20048;-82
2022/02/12 03:19:30;;;;;;;7.75;1.10;;;;;;;-1.73;100.00;103025.19;6322733;28;20051;-82
2022/02/12 03:22:32;;;;;;;1.67;0.95;;;;;;;-1.73;100.00;103025.19;6326402;28;20040;-82
2022/02/12 03:25:34;;;;;;;1.40;0.77;;;;;;;-1.70;100.00;103024.41;6326547;28;20055;-82
2022/02/12 03:28:36;;;;;;;0.43;0.40;;;;;;;-1.72;100.00;103024.38;6326493;28;20055;-82
2022/02/12 03:31:38;;;;;;;1.50;0.98;;;;;;;-1.70;100.00;103019.25;6326099;28;20040;-81
2022/02/12 03:34:39;;;;;;;0.50;0.50;;;;;;;-1.70;100.00;103020.13;6326283;28;20044;-82
2022/02/12 03:37:40;;;;;;;1.10;0.85;;;;;;;-1.71;100.00;103017.50;6326259;28;20483;-82
2022/02/12 03:40:45;;;;;;;2.22;1.23;;;;;;;-1.72;100.00;103014.06;6326017;28;20418;-81
2022/02/12 03:43:46;;;;;;;3.60;1.38;;;;;;;-1.72;100.00;103015.78;6325717;28;20411;-82
2022/02/12 03:46:48;;;;;;;0.77;0.70;;;;;;;-1.73;100.00;103009.72;6326322;28;20648;-81
2022/02/12 03:49:49;;;;;;;2.63;1.30;;;;;;;-1.71;100.00;103012.34;6325815;28;20052;-82
2022/02/12 03:52:50;;;;;;;2.42;1.27;;;;;;;-1.71;100.00;103015.81;6325819;28;20047;-81
2022/02/12 03:55:53;;;;;;;1.90;1.08;;;;;;;-1.74;100.00;103018.28;6325731;28;20072;-81
2022/02/12 03:58:55;;;;;;;2.40;1.50;;;;;;;-1.74;100.00;103009.66;6325737;28;20040;-82
2022/02/12 04:01:56;;;;;;;2.92;1.08;;;;;;;-1.76;100.00;103011.34;6325197;28;20419;-81
2022/02/12 04:04:57;;;;;;;2.58;1.50;;;;;;;-1.73;100.00;103003.69;6325649;28;20044;-82
2022/02/12 04:07:59;;;;;;;1.33;1.23;;;;;;;-1.74;100.00;102994.22;6325574;28;20492;-82
2022/02/12 04:11:01;;;;;;;2.45;1.67;;;;;;;-1.82;100.00;103001.66;6325264;28;20047;-82
2022/02/12 04:14:03;;;;;;;1.02;0.70;;;;;;;-1.89;100.00;102992.00;6325360;28;20052;-82
2022/02/12 04:17:05;;;;;;;5.95;3.53;;;;;;;-1.83;100.00;102981.88;6325001;28;20056;-82
2022/02/12 04:20:08;;;;;;;0.95;0.85;;;;;;;-1.79;100.00;102982.03;6325184;28;20047;-81
2022/02/12 04:23:10;;;;;;;4.20;1.08;;;;;;;-1.78;100.00;102982.91;6325138;28;20051;-82
2022/02/12 04:26:13;;;;;;;7.13;3.40;;;;;;;-1.76;100.00;102985.56;6325097;28;20048;-83
2022/02/12 04:29:14;;;;;;;5.13;1.50;;;;;;;-1.76;100.00;102976.13;6325166;28;20048;-82
2022/02/12 04:32:15;;;;;;;3.95;1.33;;;;;;;-1.75;100.00;102977.88;6324565;28;20040;-81
2022/02/12 04:35:17;;;;;;;1.30;0.65;;;;;;;-1.77;100.00;102973.47;6324961;28;20052;-82
2022/02/12 04:38:18;;;;;;;1.30;1.20;;;;;;;-1.81;100.00;102972.53;6324631;28;20044;-81
2022/02/12 04:41:20;;;;;;;0.70;0.70;;;;;;;-1.84;100.00;102975.84;6324495;28;20052;-82
2022/02/12 04:44:22;;;;;;;5.45;0.65;;;;;;;-1.89;100.00;102968.81;6324651;28;20047;-83
2022/02/12 04:47:23;;;;;;;1.10;0.90;;;;;;;-1.89;100.00;102963.66;6324599;28;20048;-82
2022/02/12 04:50:25;;;;;;;6.57;2.25;;;;;;;-1.90;100.00;102956.75;6324220;28;20047;-82
2022/02/12 04:53:26;;;;;;;1.83;1.25;;;;;;;-1.89;100.00;102966.22;6324395;28;20048;-82
2022/02/12 04:56:29;;;;;;;0.55;0.55;;;;;;;-1.90;100.00;102960.22;6324311;28;20044;-82
2022/02/12 04:59:30;;;;;;;6.38;1.20;;;;;;;-1.92;100.00;102955.81;6324435;28;20044;-82
2022/02/12 05:02:32;;;;;;;0.95;0.85;;;;;;;-1.91;100.00;102955.84;6323948;28;20070;-81
2022/02/12 05:05:33;;;;;;;1.67;1.08;;;;;;;-1.94;100.00;102949.75;6324491;28;20064;-81
2022/02/12 05:08:34;;;;;;;2.63;1.10;;;;;;;-1.99;100.00;102952.16;6323829;28;20051;-81
2022/02/12 05:11:37;;;;;;;0.98;0.80;;;;;;;-2.01;100.00;102948.66;6323717;28;20048;-81
2022/02/12 05:14:38;;;;;;;0.63;0.63;;;;;;;-1.99;100.00;102957.31;6328814;28;20040;-81
2022/02/12 05:17:40;;;;;;;1.75;1.65;;;;;;;-1.96;100.00;102941.06;6348645;28;20410;-81
2022/02/12 05:24:43;;;;;;;1.38;1.02;;;;;;;-1.96;100.00;102947.09;6349087;28;20448;-80
2022/02/12 05:27:46;;;;;;;5.43;1.58;;;;;;;-2.03;100.00;102940.00;6348855;28;20430;-81
2022/02/12 05:30:47;;;;;;;1.10;1.00;;;;;;;-1.97;100.00;102940.19;6348564;28;20054;-81
2022/02/12 05:34:02;;;;;;;0.93;0.70;;;;;;;-1.96;100.00;102939.38;6348874;28;20048;-80
2022/02/12 05:37:04;;;;;;;2.22;0.95;;;;;;;-1.97;100.00;102932.47;6348860;28;20126;-82
2022/02/12 05:40:06;;;;;;;2.80;0.73;;;;;;;-1.98;100.00;102929.84;6348256;27;20063;-81
2022/02/12 05:43:13;;;;;;;1.63;0.75;;;;;;;-2.00;100.00;102924.63;6347802;27;20044;-83
2022/02/12 05:46:15;;;;;;;6.55;1.58;;;;;;;-2.01;100.00;102917.72;6335312;28;20059;-81
2022/02/12 05:49:16;;;;;;;1.88;0.98;;;;;;;-2.05;100.00;102918.44;6323031;28;20047;-80
2022/02/12 05:52:18;;;;;;;1.92;1.00;;;;;;;-2.06;100.00;102912.44;6322866;28;20052;-81
2022/02/12 05:55:19;;;;;;;2.47;1.05;;;;;;;-2.07;100.00;102907.22;6322902;28;20059;-83
2022/02/12 05:58:22;;;;;;;9.85;0.75;;;;;;;-2.07;100.00;102910.69;6322516;28;20419;-81
2022/02/12 06:01:23;;;;;;;1.85;0.63;;;;;;;-2.03;100.00;102913.38;6322781;28;20059;-80
2022/02/12 06:04:25;;;;;;;2.35;1.38;;;;;;;-2.03;100.00;102903.06;6330796;28;20043;-80
2022/02/12 06:07:26;;;;;;;1.55;0.88;;;;;;;-2.02;100.00;102907.38;6347781;28;20051;-82
2022/02/12 06:10:28;;;;;;;2.22;1.00;;;;;;;-2.02;100.00;102915.13;6347896;28;20047;-80
2022/02/12 06:13:31;;;;;;;3.10;0.68;;;;;;;-2.01;100.00;102907.44;6348216;28;20479;-83
2022/02/12 06:16:32;;;;;;;3.08;0.90;;;;;;;-2.03;100.00;102903.06;6322442;28;20055;-80
2022/02/12 06:19:33;;;;;;;2.42;0.88;;;;;;;-2.05;100.00;102900.41;6336870;28;20419;-80
2022/02/12 06:22:35;;;;;;;1.23;1.13;;;;;;;-2.06;100.00;102898.66;6348084;28;20055;-81
2022/02/12 06:25:52;;;;;;;3.55;1.02;;;;;;;-2.06;100.00;102908.97;6344484;28;20055;-80
2022/02/12 06:28:55;;;;;;;5.75;1.60;;;;;;;-2.09;100.00;102899.47;6322625;28;20052;-80
2022/02/12 06:31:56;;;;;;;2.47;1.20;;;;;;;-2.09;100.00;102899.47;6321621;28;20051;-82
2022/02/12 06:35:00;;;;;;;3.53;1.38;;;;;;;-2.09;100.00;102895.97;6322601;28;20058;-80
2022/02/12 06:38:02;;;;;;;4.45;0.88;;;;;;;-2.12;100.00;102893.31;6322426;28;20055;-80
2022/02/12 06:41:03;;;;;;;1.45;1.35;;;;;;;-2.09;100.00;102895.97;6345774;28;20048;-81
2022/02/12 06:44:06;;;;;;;13.38;1.70;;;;;;;-2.04;100.00;102897.03;6347359;28;20040;-80
2022/02/12 06:47:07;;;;;;;0.50;0.50;;;;;;;-2.02;100.00;102899.66;6347391;28;20047;-81
2022/02/12 06:50:09;;;;;;;1.13;0.95;;;;;;;-2.06;100.00;102880.63;6346922;28;20395;-80
2022/02/12 06:53:11;;;;;;;1.48;0.90;;;;;;;-2.06;100.00;102885.78;6347869;28;20054;-80
2022/02/12 06:56:13;;;;;;;5.47;0.70;;;;;;;-2.06;100.00;102886.66;6352623;28;20051;-80
2022/02/12 06:59:16;;;;;;;2.17;1.52;;;;;;;-2.07;100.00;102887.50;6350019;28;20039;-80
2022/02/12 07:02:17;;;;;;;1.83;0.85;;;;;;;-2.05;100.00;102888.41;6326698;28;20052;-80
2022/02/12 07:05:19;;;;;;;3.92;1.25;;;;;;;-2.05;100.00;102883.25;6326611;28;20050;-80
2022/02/12 07:08:20;;;;;;;4.43;0.85;;;;;;;-2.04;100.00;102879.00;6327099;28;20403;-80
2022/02/12 07:11:22;;;;;;;3.88;1.75;;;;;;;-2.00;100.00;102875.69;6326383;28;20056;-74
2022/02/12 07:14:25;;;;;;;0.88;0.63;;;;;;;-2.00;100.00;102874.81;6325837;28;20048;-75
2022/02/12 07:17:27;;;;;;;1.00;0.85;;;;;;;-2.00;100.00;102874.81;6325434;28;20503;-75
2022/02/12 07:20:28;;;;;;;8.60;1.05;;;;;;;-1.99;100.00;102874.00;6343029;28;20054;-75
2022/02/12 07:23:29;;;;;;;3.00;0.73;;;;;;;-1.97;100.00;102872.34;6350557;28;20044;-76
2022/02/12 07:26:31;;;;;;;3.58;1.38;;;;;;;-1.93;100.00;102880.22;6350911;28;20074;-76
2022/02/12 07:29:33;;;;;;;1.23;0.75;;;;;;;-1.90;100.00;102879.47;6338637;28;20051;-76
2022/02/12 07:32:36;;;;;;;1.45;1.05;;;;;;;-1.87;100.00;102875.25;6339782;28;20048;-76
2022/02/12 07:35:37;;;;;;;2.72;1.15;;;;;;;-1.86;100.00;102874.44;6337388;28;20047;-77
2022/02/12 07:38:39;;;;;;;1.55;1.00;;;;;;;-1.85;100.00;102871.03;6336961;28;20048;-76
2022/02/12 07:41:42;;;;;;;4.32;1.25;;;;;;;-1.79;100.00;102871.22;6336521;28;20465;-77
2022/02/12 07:44:44;;;;;;;1.67;1.15;;;;;;;-1.80;100.00;102858.31;6341568;28;20051;-76
2022/02/12 07:47:46;;;;;;;3.92;1.38;;;;;;;-1.80;100.00;102872.06;6349687;28;20074;-77
2022/02/12 07:50:48;;;;;;;1.65;0.85;;;;;;;-1.70;100.00;102868.06;6349759;28;20063;-77
2022/02/12 07:53:49;;;;;;;1.65;1.00;;;;;;;-1.66;100.00;102867.34;6350154;28;20043;-78
2022/02/12 07:56:54;;;;;;;3.85;1.52;;;;;;;-1.67;100.00;102865.59;6348345;27;20051;-78
2022/02/12 07:59:56;;;;;;;1.42;1.10;;;;;;;-1.62;100.00;102866.59;6346522;28;20047;-76
2022/02/12 08:02:58;;;;;;;2.63;1.30;;;;;;;-1.55;100.00;102852.19;6348474;28;20057;-76
2022/02/12 08:05:59;;;;;;;2.03;1.50;;;;;;;-1.38;100.00;102861.31;6341983;28;20050;-77
2022/02/12 08:09:00;;;;;;;10.50;0.98;;;;;;;-1.35;100.00;102858.84;6349432;28;20043;-77
2022/02/12 08:12:13;;;;;;;2.55;2.08;;;;;;;-1.27;100.00;102859.06;6349571;28;20051;-76
2022/02/12 08:15:16;;;;;;;2.85;1.15;;;;;;;-1.22;100.00;102864.38;6349580;28;20054;-77
2022/02/12 08:18:17;;;;;;;1.25;1.05;;;;;;;-1.18;100.00;102872.22;6341960;27;20422;-77
2022/02/12 08:21:18;;;;;;;2.05;0.82;;;;;;;-1.12;100.00;102869.81;6348895;28;20047;-77
2022/02/12 08:24:20;;;;;;;3.00;0.85;;;;;;;-1.05;100.00;102866.56;6349097;28;20040;-76
2022/02/12 08:27:27;;;;;;;1.30;0.95;;;;;;;-0.98;100.00;102865.06;6344854;28;20102;-77
2022/02/12 08:30:29;;;;;;;4.38;0.90;;;;;;;-0.93;100.00;102866.06;6340401;28;20442;-76
2022/02/12 08:33:31;;;;;;;1.20;0.90;;;;;;;-0.85;100.00;102868.84;6343068;28;20495;-77
2022/02/12 08:36:32;;;;;;;0.98;0.82;;;;;;;-0.79;100.00;102867.31;6348720;28;20084;-76
2022/02/12 08:39:33;;;;;;;0.75;0.75;;;;;;;-0.61;100.00;102864.34;6348939;28;20062;-77
2022/02/12 08:42:35;;;;;;;1.77;1.30;;;;;;;-0.53;100.00;102869.72;6348635;28;20788;-77
2022/02/12 08:45:38;;;;;;;0.52;0.47;;;;;;;-0.45;100.00;102868.22;6348771;28;20414;-77
2022/02/12 08:48:39;;;;;;;0.93;0.50;;;;;;;-0.35;100.00;102861.59;6342460;28;20483;-77
2022/02/12 08:51:41;;;;;;;0.93;0.88;;;;;;;-0.27;100.00;102870.41;6348225;28;20051;-77
2022/02/12 08:54:42;;;;;;;6.75;1.13;;;;;;;-0.10;100.00;102853.59;6348579;28;20047;-76
2022/02/12 08:57:44;;;;;;;2.08;1.08;;;;;;;0.04;100.00;102846.19;6348450;28;20047;-77
2022/02/12 09:00:47;;;;;;;6.35;1.00;;;;;;;0.13;100.00;102848.97;6348678;28;20048;-78
2022/02/12 09:03:49;;;;;;;10.52;2.30;;;;;;;0.23;100.00;102838.03;6348461;28;20589;-78
2022/02/12 09:06:50;;;;;;;1.95;1.08;;;;;;;0.34;100.00;102851.22;6348675;28;20051;-79
2022/02/12 09:09:54;;;;;;;2.75;1.08;;;;;;;0.49;100.00;102845.50;6348076;28;20047;-77
2022/02/12 09:12:56;;;;;;;0.73;0.50;;;;;;;0.56;100.00;102844.81;6340021;28;20059;-75
2022/02/12 09:15:58;;;;;;;0.57;0.55;;;;;;;0.57;100.00;102838.78;6343167;28;20081;-76
2022/02/12 09:19:00;;;;;;;6.65;1.27;;;;;;;0.62;100.00;102836.28;6346570;28;20051;-76
2022/02/12 09:22:02;;;;;;;7.45;1.23;;;;;;;0.76;100.00;102838.31;6347253;28;20098;-79
2022/02/12 09:25:05;;;;;;;1.58;0.77;;;;;;;0.86;100.00;102826.44;6347147;28;20505;-80
2022/02/12 09:28:06;;;;;;;2.88;0.90;;;;;;;1.01;100.00;102829.34;6346649;28;20039;-79
2022/02/12 09:31:09;;;;;;;1.55;1.00;;;;;;;1.04;100.00;102828.53;6337509;27;20047;-77
2022/02/12 09:34:10;;;;;;;1.88;0.70;;;;;;;1.08;100.00;102821.69;6341028;28;20047;-78
2022/02/12 09:37:11;;;;;;;1.85;1.00;;;;;;;1.13;100.00;102812.28;6337643;28;20097;-74
2022/02/12 09:40:14;;;;;;;2.10;0.85;;;;;;;1.14;100.00;102809.75;6347638;28;20499;-78
2022/02/12 09:43:16;;;;;;;0.88;0.50;;;;;;;1.22;100.00;102805.56;6339991;28;20062;-80
2022/02/12 09:46:49;;;;;;;0.65;0.63;;;;;;;1.30;100.00;102803.13;6330397;28;20418;-79
2022/02/12 09:49:51;;;;;;;2.78;1.17;;;;;;;1.41;100.00;102790.34;6320912;28;20044;-78
2022/02/12 09:52:55;;;;;;;6.38;0.82;;;;;;;1.46;100.00;102786.16;6347015;28;20391;-75
2022/02/12 09:55:56;;;;;;;7.55;1.10;;;;;;;1.65;100.00;102777.84;6346336;28;20054;-79
2022/02/12 09:58:58;;;;;;;1.95;1.00;;;;;;;1.64;100.00;102778.69;6340742;28;20051;-79
2022/02/12 10:02:00;;;;;;;2.05;1.15;;;;;;;1.68;100.00;102770.13;6338476;28;20044;-79
2022/02/12 10:05:22;;;;;;;3.10;1.50;;;;;;;1.80;100.00;102759.06;6347250;28;20039;-78
2022/02/12 10:08:24;;;;;;;2.50;0.73;;;;;;;1.89;100.00;102755.72;6322451;28;20040;-78
2022/02/12 10:11:28;;;;;;;3.30;0.65;;;;;;;1.92;100.00;102754.06;6347470;28;20469;-79
2022/02/12 10:14:36;;;;;;;2.30;0.88;;;;;;;1.96;100.00;102748.06;6340840;28;20124;-79
2022/02/12 10:17:50;;;;;;;0.98;0.60;;;;;;;2.01;100.00;102750.72;6348100;28;20052;-80
2022/02/12 10:20:54;;;;;;;1.90;0.73;;;;;;;2.23;100.00;102757.97;6347545;28;20050;-78
2022/02/12 10:23:55;;;;;;;1.33;0.50;;;;;;;2.34;100.00;102749.44;6347864;28;20051;-79
2022/02/12 10:27:03;;;;;;;1.65;0.50;;;;;;;2.39;97.41;102740.84;6348014;28;20056;-79
2022/02/12 10:30:06;;;;;;;5.85;0.65;;;;;;;2.40;97.61;102740.00;6347407;28;20048;-79
2022/02/12 10:33:09;;;;;;;3.55;0.93;;;;;;;2.43;93.75;102731.41;6337141;28;20051;-80
2022/02/12 10:36:15;;;;;;;1.27;0.68;;;;;;;2.45;91.77;102737.47;6342544;28;20035;-77
2022/02/12 10:39:17;;;;;;;0.95;0.50;;;;;;;2.52;94.97;102726.31;6339549;28;20044;-79
2022/02/12 10:42:18;;;;;;;7.28;1.00;;;;;;;2.57;93.36;102728.97;6330672;28;20434;-77
2022/02/12 10:45:20;;;;;;;0.98;0.82;;;;;;;2.45;91.74;102717.59;6331828;28;20483;-81
2022/02/12 10:48:24;;;;;;;3.83;0.85;;;;;;;2.41;93.00;102721.00;6334733;28;20048;-78
2022/02/12 10:51:26;;;;;;;7.03;1.65;;;;;;;2.51;90.33;102719.38;6340567;28;20051;-79
2022/02/12 10:54:27;;;;;;;0.40;0.40;;;;;;;2.56;91.49;102712.53;6348750;28;20051;-79
2022/02/12 10:57:36;;;;;;;3.03;0.93;;;;;;;2.63;93.33;102711.72;6344377;28;20048;-79
2022/02/12 11:00:39;;;;;;;0.52;0.50;;;;;;;2.69;92.62;102710.94;6342555;28;20219;-79
2022/02/12 11:03:43;;;;;;;2.33;1.30;;;;;;;2.69;92.68;102691.03;6341436;28;20066;-78
2022/02/12 11:06:47;;;;;;;1.13;0.63;;;;;;;2.65;90.74;102684.06;6342356;28;20044;-79
2022/02/12 11:09:48;;;;;;;1.02;0.90;;;;;;;2.70;87.75;102679.81;6341927;28;20123;-79
2022/02/12 11:12:50;;;;;;;0.68;0.50;;;;;;;2.76;87.96;102679.84;6339506;28;20059;-78
2022/02/12 11:15:51;;;;;;;5.15;0.88;;;;;;;2.86;87.82;102683.44;6340617;28;20039;-78
2022/02/12 11:18:55;;;;;;;0.63;0.60;;;;;;;2.93;87.90;102672.22;6346247;28;20044;-80
2022/02/12 11:21:56;;;;;;;2.78;0.50;;;;;;;3.14;84.19;102662.91;6343834;28;20044;-78
2022/02/12 11:24:58;;;;;;;0.75;0.65;;;;;;;3.30;85.24;102655.22;6340126;28;20044;-78
2022/02/12 11:28:11;;;;;;;2.80;0.90;;;;;;;3.61;85.02;102649.38;6334640;28;20189;-77
2022/02/12 11:31:21;;;;;;;3.17;0.88;;;;;;;3.84;82.46;102642.56;6339614;28;20152;-78
2022/02/12 11:34:23;;;;;;;1.13;0.68;;;;;;;4.11;82.35;102647.03;6336302;28;20563;-80
2022/02/12 11:37:32;;;;;;;3.20;0.73;;;;;;;4.28;82.29;102642.75;6347992;28;20047;-81
2022/02/12 11:40:36;;;;;;;1.63;0.93;;;;;;;4.46;81.24;102634.13;6355856;28;20071;-80
2022/02/12 11:43:37;;;;;;;2.88;0.85;;;;;;;4.58;76.36;102625.47;6351433;28;20040;-79
2022/02/12 11:46:57;;;;;;;2.97;0.88;;;;;;;4.76;78.53;102611.59;6350506;28;20054;-78
2022/02/12 11:50:15;;;;;;;1.25;0.77;;;;;;;4.82;79.02;102609.03;6350058;27;20063;-80
2022/02/12 11:53:37;;;;;;;5.30;1.25;;;;;;;4.90;78.37;102601.19;6350448;28;20062;-79
2022/02/12 11:56:52;;;;;;;3.55;1.27;;;;;;;5.13;75.74;102594.22;6350286;28;20043;-80
2022/02/12 12:00:31;;;;;;;2.00;1.02;;;;;;;5.21;76.07;102596.81;6350161;28;20040;-80
2022/02/12 12:04:03;;;;;;;2.20;0.93;;;;;;;5.29;74.38;102584.66;6349771;27;20522;-79
2022/02/12 12:07:09;;;;;;;2.95;1.58;;;;;;;5.42;77.26;102570.72;6349977;28;20055;-79
2022/02/12 12:10:11;;;;;;;6.30;1.10;;;;;;;5.62;75.92;102573.25;6345631;28;20637;-79
2022/02/12 12:13:41;;;;;;;5.07;1.08;;;;;;;5.76;76.75;102568.84;6344297;28;20044;-79
2022/02/12 12:16:53;;;;;;;1.33;0.93;;;;;;;6.01;74.11;102563.59;6344146;28;20039;-79
2022/02/12 12:19:54;;;;;;;1.85;1.10;;;;;;;6.15;74.63;102550.47;6349415;28;20044;-79
2022/02/12 12:23:03;;;;;;;2.22;0.70;;;;;;;6.07;74.07;102555.72;6349551;28;20056;-78
2022/02/12 12:26:04;;;;;;;2.58;1.80;;;;;;;6.20;74.35;102536.50;6343433;28;20050;-78
2022/02/12 12:32:31;;;;;;;3.00;1.33;;;;;;;6.04;75.14;102522.69;6341549;28;20071;-80
2022/02/12 12:35:32;;;;;;;2.22;1.02;;;;;;;6.07;74.34;102514.81;6348791;27;20039;-80
2022/02/12 12:38:40;;;;;;;3.17;1.33;;;;;;;6.40;78.58;102510.22;6342490;28;20050;-80
2022/02/12 12:41:43;;;;;;;3.28;0.88;;;;;;;6.28;74.57;102511.22;6342801;28;20391;-80
2022/02/12 12:44:58;;;;;;;12.40;1.27;;;;;;;6.31;75.95;102503.38;6346473;27;20035;-81
2022/02/12 12:47:59;;;;;;;3.25;1.75;;;;;;;6.48;74.52;102503.22;6346628;28;20039;-81
2022/02/12 12:51:00;;;;;;;6.22;1.10;;;;;;;6.37;76.56;102489.38;6342950;28;20048;-80
2022/02/12 12:54:04;;;;;;;1.35;1.02;;;;;;;6.52;76.94;102488.38;6348736;28;20047;-80
2022/02/12 12:57:05;;;;;;;3.10;1.00;;;;;;;6.70;73.18;102488.22;6348432;28;20040;-80
2022/02/12 13:00:09;;;;;;;2.65;1.02;;;;;;;6.63;73.97;102483.06;6348620;28;20055;-80
2022/02/12 13:03:10;;;;;;;5.57;0.93;;;;;;;6.68;73.27;102478.69;6344859;28;20040;-81
2022/02/12 13:06:14;;;;;;;3.67;1.55;;;;;;;6.63;71.59;102470.00;6342182;28;20044;-81
2022/02/12 13:09:18;;;;;;;4.10;1.42;;;;;;;6.67;72.64;102464.72;6344133;28;20484;-80
2022/02/12 13:12:31;;;;;;;3.38;1.05;;;;;;;6.45;70.70;102456.25;6348592;28;20055;-83
2022/02/12 13:15:37;;;;;;;3.10;1.15;;;;;;;6.48;71.50;102448.38;6347105;28;20131;-83
2022/02/12 13:18:39;;;;;;;2.10;1.17;;;;;;;6.61;70.06;102447.38;6346954;27;20058;-82
2022/02/12 13:21:48;;;;;;;1.85;0.50;;;;;;;6.97;69.28;102442.66;6346497;28;20050;-82
2022/02/12 13:24:54;;;;;;;3.00;1.08;;;;;;;6.98;69.84;102444.38;6346705;28;20043;-82
2022/02/12 13:27:57;;;;;;;16.10;4.80;;;;;;;7.14;69.45;102428.53;6347516;28;20498;-82
2022/02/12 13:30:58;;;;;;;10.68;1.23;;;;;;;7.19;69.25;102434.56;6347787;28;20525;-80
2022/02/12 13:34:02;;;;;;;7.95;1.20;;;;;;;7.23;67.00;102423.19;6348279;28;20039;-82
2022/02/12 13:37:07;;;;;;;5.43;1.27;;;;;;;7.10;66.51;102419.84;6348057;28;20152;-82
2022/02/12 13:40:15;;;;;;;4.10;1.13;;;;;;;7.31;69.92;102405.63;6348215;28;20426;-82
2022/02/12 13:43:21;;;;;;;5.53;0.80;;;;;;;7.36;65.54;102403.84;6347966;28;20371;-80
2022/02/12 13:46:22;;;;;;;6.82;2.20;;;;;;;7.49;66.06;102394.91;6347880;28;20126;-77
2022/02/12 13:49:27;;;;;;;9.80;1.23;;;;;;;7.70;67.34;102382.44;6348229;28;20535;-79
2022/02/12 13:52:28;;;;;;;1.95;0.98;;;;;;;7.54;65.83;102382.66;6348035;28;20081;-80
2022/02/12 13:55:33;;;;;;;1.23;0.85;;;;;;;7.47;65.68;102375.78;6347889;28;20044;-79
2022/02/12 13:58:34;;;;;;;2.63;1.02;;;;;;;7.38;64.38;102360.22;6331453;28;20041;-80
2022/02/12 14:01:35;;;;;;;0.95;0.70;;;;;;;7.28;65.78;102362.09;6325659;28;20052;-83
2022/02/12 14:04:38;;;;;;;0.88;0.75;;;;;;;7.41;67.64;102351.47;6347202;28;20177;-82
2022/02/12 14:07:42;;;;;;;1.35;0.77;;;;;;;7.52;64.88;102352.19;6343482;28;20483;-82
2022/02/12 14:10:44;;;;;;;3.45;0.90;;;;;;;7.36;62.45;102352.41;6323096;28;20521;-82
2022/02/12 14:13:47;;;;;;;2.40;0.73;;;;;;;7.48;60.88;102343.50;6323991;28;20044;-82
2022/02/12 14:16:48;;;;;;;2.75;1.00;;;;;;;7.30;62.17;102334.16;6324292;28;20054;-82
2022/02/12 14:19:50;;;;;;;3.95;0.95;;;;;;;7.26;63.32;102329.88;6321908;28;20052;-82
2022/02/12 14:22:51;;;;;;;2.92;0.98;;;;;;;7.24;65.60;102328.19;6322523;28;20388;-80